Time;durP1;ratioP1;P1;durP2;ratioP2;P2;SDS_P1;SDS_P2;PMS_P1;PMS_P2;Temp;Humidity;BMP_temperature;BMP_pressure;BME280_temperature;BME280_humidity;BME280_pressure;Samples;Min_cycle;Max_cycle;Signal;HPM_P1;HPM_P2
2023/03/20 00:01:17;;;;;;;6.15;3.13;;;8.10;99.90;;;;;;5067457;28;20456;-81
2023/03/20 00:03:43;;;;;;;7.72;3.85;;;8.00;99.90;;;;;;5069162;28;20406;-81
2023/03/20 00:06:20;;;;;;;9.15;2.78;;;8.00;99.90;;;;;;5052018;28;20032;-81
2023/03/20 00:08:48;;;;;;;6.15;2.60;;;8.00;99.90;;;;;;5066527;28;20052;-81
2023/03/20 00:11:25;;;;;;;4.72;2.65;;;7.90;99.90;;;;;;5068408;28;20447;-81
2023/03/20 00:14:17;;;;;;;5.28;2.72;;;7.90;99.90;;;;;;5052393;28;20044;-82
2023/03/20 00:16:45;;;;;;;8.38;3.00;;;7.90;99.90;;;;;;5065780;28;20048;-81
2023/03/20 00:19:16;;;;;;;6.68;3.00;;;7.80;99.90;;;;;;5068663;28;20721;-80
2023/03/20 00:21:42;;;;;;;6.93;2.97;;;7.80;99.90;;;;;;5066853;28;20044;-80
2023/03/20 00:24:08;;;;;;;;;;;7.80;99.90;;;;;;5052469;28;20465;-80
2023/03/20 00:30:23;;;;;;;8.73;2.78;;;7.80;99.90;;;;;;5068183;28;20094;-81
2023/03/20 00:32:50;;;;;;;6.18;3.25;;;7.80;99.90;;;;;;5050415;28;20111;-80
2023/03/20 00:35:26;;;;;;;4.15;2.30;;;7.70;99.90;;;;;;5068676;28;20060;-80
2023/03/20 00:37:52;;;;;;;5.55;2.65;;;7.80;99.90;;;;;;5065888;28;20044;-81
2023/03/20 00:40:19;;;;;;;5.07;2.47;;;7.80;99.90;;;;;;5051838;28;20040;-80
2023/03/20 00:42:46;;;;;;;;;;;7.80;99.90;;;;;;5052954;28;20032;-80
2023/03/20 00:45:17;;;;;;;6.05;3.08;;;7.70;99.90;;;;;;5072831;28;20443;-80
2023/03/20 00:47:43;;;;;;;5.53;2.67;;;7.80;99.90;;;;;;5069675;28;20051;-81
2023/03/20 00:50:19;;;;;;;7.75;2.78;;;7.80;99.90;;;;;;5039147;28;20098;-80
2023/03/20 00:52:45;;;;;;;6.55;2.65;;;7.80;99.90;;;;;;5071891;28;20133;-80
2023/03/20 00:55:11;;;;;;;7.65;2.75;;;7.80;99.90;;;;;;5072609;28;21779;-80
2023/03/20 00:57:50;;;;;;;6.90;2.80;;;7.80;99.90;;;;;;5072048;28;20033;-80
2023/03/20 01:00:30;;;;;;;6.13;3.20;;;7.80;99.90;;;;;;5072240;28;20111;-82
2023/03/20 01:02:56;;;;;;;7.18;3.22;;;7.80;99.90;;;;;;5071844;28;20035;-82
2023/03/20 01:05:23;;;;;;;6.20;3.08;;;7.80;99.90;;;;;;5071950;28;20096;-80
2023/03/20 01:07:49;;;;;;;5.90;3.22;;;7.80;99.90;;;;;;5072093;28;20051;-80
2023/03/20 01:10:16;;;;;;;10.88;3.60;;;7.80;99.90;;;;;;5071598;28;20058;-80
2023/03/20 01:12:43;;;;;;;5.30;3.30;;;7.80;99.90;;;;;;5055049;28;20124;-80
2023/03/20 01:15:21;;;;;;;6.57;2.65;;;7.80;99.90;;;;;;5071687;28;20044;-80
2023/03/20 01:17:47;;;;;;;6.93;3.40;;;7.80;99.90;;;;;;5070264;28;20041;-80
2023/03/20 01:20:16;;;;;;;7.75;3.30;;;7.80;99.90;;;;;;5071824;28;20042;-80
2023/03/20 01:22:42;;;;;;;11.50;3.60;;;7.80;99.90;;;;;;5071223;28;20036;-80
2023/03/20 01:25:08;;;;;;;7.97;3.53;;;7.80;99.90;;;;;;5055259;28;20500;-80
2023/03/20 01:27:34;;;;;;;7.32;2.95;;;7.80;99.90;;;;;;5055117;28;20028;-80
2023/03/20 01:29:59;;;;;;;7.35;3.10;;;7.80;99.90;;;;;;5054750;28;20033;-80
2023/03/20 01:32:25;;;;;;;6.72;3.17;;;7.80;99.90;;;;;;5054946;28;20041;-80
2023/03/20 01:34:52;;;;;;;8.67;2.93;;;7.90;99.90;;;;;;5070374;28;20082;-80
2023/03/20 01:37:27;;;;;;;;;;;7.90;99.90;;;;;;5054668;28;20115;-80
2023/03/20 01:39:54;;;;;;;6.35;3.17;;;7.90;99.90;;;;;;5068915;28;19928;-81
2023/03/20 01:42:20;;;;;;;7.03;3.25;;;7.90;99.90;;;;;;5071107;28;20729;-81
2023/03/20 01:44:46;;;;;;;9.02;3.40;;;8.00;99.90;;;;;;5070294;28;20041;-81
2023/03/20 01:47:30;;;;;;;6.20;3.55;;;7.90;99.90;;;;;;5053803;28;20044;-81
2023/03/20 01:50:21;;;;;;;10.82;3.58;;;7.90;99.90;;;;;;5019218;28;20434;-80
2023/03/20 01:52:49;;;;;;;10.93;3.28;;;7.90;99.90;;;;;;5069264;28;20048;-80
2023/03/20 02:06:21;;;;;;;8.70;3.90;;;8.00;99.90;;;;;;5069875;28;20074;-81
2023/03/20 02:08:50;;;;;;;8.98;3.65;;;8.00;99.90;;;;;;5070158;28;20441;-80
2023/03/20 02:11:21;;;;;;;6.35;3.33;;;8.00;99.90;;;;;;5054014;28;20479;-81
2023/03/20 02:13:47;;;;;;;10.23;3.45;;;8.00;99.90;;;;;;5070312;28;20041;-81
2023/03/20 02:16:15;;;;;;;13.07;3.88;;;8.00;99.90;;;;;;5054393;28;20766;-81
2023/03/20 02:18:43;;;;;;;10.48;3.88;;;8.00;99.90;;;;;;5070745;28;20052;-81
2023/03/20 02:21:36;;;;;;;14.85;4.47;;;8.00;99.90;;;;;;5070847;28;20695;-81
2023/03/20 02:24:20;;;;;;;12.77;3.83;;;7.90;99.90;;;;;;5070765;28;20043;-81
2023/03/20 02:27:07;;;;;;;15.27;4.32;;;8.00;99.90;;;;;;5053986;28;20544;-81
2023/03/20 02:29:41;;;;;;;12.15;4.40;;;8.10;99.90;;;;;;5068486;28;20037;-80
2023/03/20 02:32:38;;;;;;;11.48;4.20;;;8.00;99.90;;;;;;5070545;28;20155;-80
2023/03/20 02:35:13;;;;;;;12.73;5.60;;;8.00;99.90;;;;;;5103475;28;20036;-80
2023/03/20 02:37:45;;;;;;;15.18;5.20;;;8.00;99.90;;;;;;5068386;28;20124;-80
2023/03/20 02:40:29;;;;;;;14.38;4.97;;;8.00;99.90;;;;;;5070156;28;20722;-80
2023/03/20 02:43:24;;;;;;;12.40;4.22;;;8.00;99.90;;;;;;5053707;28;20041;-80
2023/03/20 02:46:00;;;;;;;10.05;4.50;;;8.00;99.90;;;;;;5046203;28;20053;-80
2023/03/20 02:48:32;;;;;;;12.68;4.90;;;8.10;99.90;;;;;;5068165;28;20029;-80
2023/03/20 02:51:03;;;;;;;14.93;5.03;;;8.00;99.90;;;;;;5053508;28;20036;-80
2023/03/20 02:53:50;;;;;;;14.93;4.30;;;8.00;99.90;;;;;;5070397;28;20112;-80
2023/03/20 02:56:30;;;;;;;7.95;3.70;;;8.10;99.90;;;;;;5070173;28;20078;-79
2023/03/20 02:59:06;;;;;;;14.48;4.10;;;8.10;99.90;;;;;;5070232;28;20399;-80
2023/03/20 03:01:37;;;;;;;13.75;3.78;;;8.10;99.90;;;;;;5070242;28;20041;-80
2023/03/20 03:04:17;;;;;;;17.02;4.63;;;8.00;99.90;;;;;;5063239;28;20044;-80
2023/03/20 03:06:47;;;;;;;15.32;4.63;;;8.10;99.90;;;;;;5101470;28;20377;-80
2023/03/20 03:09:21;;;;;;;12.95;4.43;;;8.10;99.90;;;;;;5069988;28;20040;-80
2023/03/20 03:11:52;;;;;;;11.75;4.93;;;8.00;99.90;;;;;;5067605;28;20047;-80
2023/03/20 03:14:36;;;;;;;12.48;5.25;;;8.00;99.90;;;;;;5070266;28;20119;-80
2023/03/20 03:17:04;;;;;;;17.65;4.93;;;8.00;99.90;;;;;;5053022;28;20480;-80
2023/03/20 03:19:32;;;;;;;11.73;4.60;;;8.00;99.90;;;;;;5069632;28;20040;-80
2023/03/20 03:21:58;;;;;;;11.60;4.30;;;8.00;99.90;;;;;;5052742;28;20397;-80
2023/03/20 03:24:28;;;;;;;15.68;6.03;;;8.00;99.90;;;;;;5070050;28;20044;-81
2023/03/20 03:26:58;;;;;;;16.17;5.45;;;8.10;99.90;;;;;;5051567;28;20041;-81
2023/03/20 03:29:26;;;;;;;14.90;4.70;;;8.10;99.90;;;;;;5068963;28;20049;-81
2023/03/20 03:31:53;;;;;;;16.95;5.18;;;8.10;99.90;;;;;;5065951;28;20068;-80
2023/03/20 03:34:22;;;;;;;12.52;5.55;;;8.00;99.90;;;;;;5052326;28;20044;-80
2023/03/20 03:36:56;;;;;;;13.55;5.18;;;8.10;99.90;;;;;;5069089;28;20089;-80
2023/03/20 03:39:38;;;;;;;15.27;4.72;;;8.10;99.90;;;;;;5069216;28;20125;-80
2023/03/20 03:42:10;;;;;;;14.85;4.93;;;8.20;99.90;;;;;;5050318;28;20064;-81
2023/03/20 03:45:00;;;;;;;11.38;5.10;;;8.10;99.90;;;;;;5069490;28;20044;-81
2023/03/20 03:47:35;;;;;;;13.82;6.10;;;8.20;99.90;;;;;;5050588;28;20068;-81
2023/03/20 03:50:19;;;;;;;17.80;5.25;;;8.20;99.90;;;;;;5068840;28;20076;-81
2023/03/20 03:52:47;;;;;;;11.65;4.63;;;8.20;99.90;;;;;;5052303;28;20163;-81
2023/03/20 03:55:27;;;;;;;16.10;5.18;;;8.30;99.90;;;;;;5068792;28;20039;-81
2023/03/20 03:58:00;;;;;;;12.63;5.32;;;8.20;99.90;;;;;;5066420;28;20492;-81
2023/03/20 04:00:27;;;;;;;17.40;4.80;;;8.20;99.90;;;;;;5069245;28;20503;-81
2023/03/20 04:02:56;;;;;;;13.95;5.10;;;8.20;99.90;;;;;;5051863;28;20024;-81
2023/03/20 04:05:23;;;;;;;14.57;5.20;;;8.20;99.90;;;;;;5066432;28;20036;-81
2023/03/20 04:07:57;;;;;;;10.98;4.55;;;8.30;99.90;;;;;;5052054;28;20089;-81
2023/03/20 04:10:23;;;;;;;12.63;5.10;;;8.20;99.90;;;;;;5069094;28;20090;-81
2023/03/20 04:12:49;;;;;;;12.13;4.78;;;8.20;99.90;;;;;;5051911;28;20064;-81
2023/03/20 04:15:15;;;;;;;12.82;4.53;;;8.10;99.90;;;;;;5068861;28;20484;-81
2023/03/20 04:17:42;;;;;;;7.30;4.20;;;8.10;99.90;;;;;;5052594;28;20552;-81
2023/03/20 04:20:08;;;;;;;;;;;8.10;99.90;;;;;;5068915;28;20115;-80
2023/03/20 04:22:34;;;;;;;14.55;5.30;;;8.10;99.90;;;;;;5068427;28;19917;-80
2023/03/20 04:25:08;;;;;;;12.20;4.88;;;8.10;99.90;;;;;;5068330;28;20394;-80
2023/03/20 04:27:34;;;;;;;13.20;4.75;;;8.10;99.90;;;;;;5068976;28;20093;-80
2023/03/20 04:29:59;;;;;;;14.63;5.82;;;8.10;99.90;;;;;;5068197;28;20127;-80
2023/03/20 04:32:25;;;;;;;13.48;5.20;;;8.10;99.90;;;;;;5068503;28;20040;-80
2023/03/20 04:34:51;;;;;;;13.73;5.23;;;8.10;99.90;;;;;;5068418;28;20392;-81
2023/03/20 04:37:17;;;;;;;12.82;5.10;;;8.10;99.90;;;;;;5051842;28;20085;-80
2023/03/20 04:39:42;;;;;;;11.82;4.43;;;8.10;99.90;;;;;;5068720;28;20053;-81
2023/03/20 04:42:09;;;;;;;13.15;5.55;;;8.10;99.90;;;;;;5035289;28;20040;-81
2023/03/20 04:44:34;;;;;;;9.27;4.50;;;8.10;99.90;;;;;;5049546;28;20049;-81
2023/03/20 04:47:00;;;;;;;13.88;5.43;;;8.10;99.90;;;;;;5051337;28;20043;-81
2023/03/20 04:49:27;;;;;;;11.48;5.00;;;8.10;99.90;;;;;;5067768;28;20041;-80
2023/03/20 04:51:54;;;;;;;9.70;4.47;;;8.10;99.90;;;;;;5050762;28;20076;-80
2023/03/20 04:54:21;;;;;;;10.10;4.22;;;8.10;99.90;;;;;;5068133;28;20130;-81
2023/03/20 04:56:46;;;;;;;12.75;5.93;;;8.20;99.90;;;;;;5051956;28;20593;-80
2023/03/20 04:59:12;;;;;;;12.88;5.40;;;8.20;99.90;;;;;;5067846;28;20120;-80
2023/03/20 05:01:38;;;;;;;9.93;4.65;;;8.20;99.90;;;;;;5068311;28;20455;-81
2023/03/20 05:04:04;;;;;;;10.75;4.85;;;8.30;99.90;;;;;;5068031;28;20037;-80
2023/03/20 05:06:31;;;;;;;11.02;5.57;;;8.20;99.90;;;;;;5052260;28;20226;-80
2023/03/20 05:08:58;;;;;;;11.95;4.82;;;8.20;99.90;;;;;;5067992;28;20044;-80
2023/03/20 05:11:27;;;;;;;12.15;4.82;;;7.60;99.90;;;;;;5068303;28;20041;-80
2023/03/20 05:13:53;;;;;;;17.08;5.30;;;8.10;99.90;;;;;;5065629;28;20119;-80
2023/03/20 05:16:19;;;;;;;11.80;4.75;;;8.10;99.90;;;;;;5051655;28;20033;-81
2023/03/20 05:18:45;;;;;;;10.80;5.03;;;8.00;99.90;;;;;;5068911;28;20036;-81
2023/03/20 05:21:11;;;;;;;13.60;5.43;;;8.00;99.90;;;;;;5067924;28;20047;-80
2023/03/20 05:23:37;;;;;;;8.23;4.13;;;8.00;99.90;;;;;;5068178;28;20044;-80
2023/03/20 05:26:03;;;;;;;14.38;4.80;;;8.00;99.90;;;;;;5067984;28;20524;-81
2023/03/20 05:28:29;;;;;;;10.48;5.07;;;8.00;99.90;;;;;;5052917;28;20033;-80
2023/03/20 05:30:55;;;;;;;16.95;4.88;;;8.10;99.90;;;;;;5071464;28;20353;-78
2023/03/20 05:33:21;;;;;;;15.88;4.97;;;8.00;99.90;;;;;;5055413;28;20182;-80
2023/03/20 05:35:47;;;;;;;9.15;4.65;;;8.00;99.90;;;;;;5071947;28;20040;-80
2023/03/20 05:38:13;;;;;;;11.95;4.68;;;8.00;99.90;;;;;;5071194;28;20043;-80
2023/03/20 05:40:40;;;;;;;10.40;3.92;;;8.10;99.90;;;;;;5071851;28;20544;-80
2023/03/20 05:43:06;;;;;;;8.60;4.18;;;8.10;99.90;;;;;;5055090;28;20469;-81
2023/03/20 05:45:32;;;;;;;10.60;4.45;;;8.10;99.90;;;;;;5038353;28;20044;-80
2023/03/20 05:47:58;;;;;;;9.70;3.92;;;8.10;99.90;;;;;;5037723;28;20043;-79
2023/03/20 05:50:24;;;;;;;15.20;6.00;;;8.20;99.90;;;;;;5070864;28;20037;-81
2023/03/20 05:52:49;;;;;;;16.27;5.30;;;8.20;99.90;;;;;;5054050;28;20362;-80
2023/03/20 05:55:15;;;;;;;12.73;4.28;;;8.20;99.90;;;;;;5052084;28;20028;-81
2023/03/20 05:57:41;;;;;;;14.02;5.00;;;8.10;99.90;;;;;;5068532;28;20047;-81
2023/03/20 06:00:09;;;;;;;11.82;4.57;;;8.10;99.90;;;;;;5069705;28;20051;-81
2023/03/20 06:02:35;;;;;;;15.52;4.70;;;8.10;99.90;;;;;;5070088;28;20091;-81
2023/03/20 06:05:01;;;;;;;;;;;8.00;99.90;;;;;;5070532;28;20048;-81
2023/03/20 06:07:27;;;;;;;11.55;4.75;;;8.10;99.90;;;;;;5070190;28;19916;-81
2023/03/20 06:09:53;;;;;;;12.05;4.38;;;8.00;99.90;;;;;;5053467;28;20511;-81
2023/03/20 06:12:19;;;;;;;11.55;4.60;;;8.10;99.90;;;;;;5069662;28;20488;-81
2023/03/20 06:14:45;;;;;;;11.68;4.70;;;8.20;99.90;;;;;;5070289;28;20029;-81
2023/03/20 06:17:10;;;;;;;14.20;5.82;;;8.10;99.90;;;;;;5069905;28;20577;-81
2023/03/20 06:19:37;;;;;;;11.75;4.55;;;8.10;99.90;;;;;;5069967;28;20048;-81
2023/03/20 06:22:03;;;;;;;;;;;8.10;99.90;;;;;;5053447;28;20043;-82
2023/03/20 06:24:29;;;;;;;11.60;4.97;;;8.20;99.90;;;;;;5070089;28;20034;-82
2023/03/20 06:26:55;;;;;;;14.73;4.97;;;8.20;99.90;;;;;;5053577;28;20051;-81
2023/03/20 06:29:21;;;;;;;11.77;4.45;;;8.10;99.90;;;;;;5069626;28;20036;-82
2023/03/20 06:31:46;;;;;;;10.48;5.00;;;8.20;99.90;;;;;;5052987;28;20048;-82
2023/03/20 06:34:12;;;;;;;16.20;5.00;;;8.20;99.90;;;;;;5036249;28;20044;-82
2023/03/20 06:36:38;;;;;;;12.25;5.60;;;8.10;99.90;;;;;;5069603;28;20033;-82
2023/03/20 06:39:04;;;;;;;13.18;4.63;;;8.20;99.90;;;;;;5069120;28;20087;-81
2023/03/20 06:41:29;;;;;;;14.25;5.32;;;8.20;99.90;;;;;;5052114;28;20508;-82
2023/03/20 06:43:55;;;;;;;13.35;4.85;;;8.30;99.90;;;;;;5069836;28;20113;-82
2023/03/20 06:46:21;;;;;;;9.63;4.77;;;8.20;99.90;;;;;;5069093;28;20050;-82
2023/03/20 06:48:47;;;;;;;12.77;5.55;;;8.30;99.90;;;;;;5069228;28;20297;-82
2023/03/20 06:51:13;;;;;;;;;;;8.30;99.90;;;;;;5035992;28;20041;-82
2023/03/20 06:53:40;;;;;;;12.32;4.95;;;8.30;99.90;;;;;;5069295;28;19920;-82
2023/03/20 06:56:07;;;;;;;13.57;5.05;;;8.30;99.90;;;;;;5069098;28;20048;-82
2023/03/20 06:58:33;;;;;;;12.60;5.90;;;8.40;99.90;;;;;;5052750;28;20043;-82
2023/03/20 07:00:59;;;;;;;12.52;5.45;;;8.40;99.90;;;;;;5068867;28;20040;-82
2023/03/20 07:03:25;;;;;;;10.93;4.90;;;8.30;99.90;;;;;;5069130;28;20036;-82
2023/03/20 07:05:51;;;;;;;14.18;6.03;;;8.30;99.90;;;;;;5035925;28;20412;-82
2023/03/20 07:08:16;;;;;;;15.35;5.93;;;8.30;99.90;;;;;;5053090;28;20523;-82
2023/03/20 07:10:42;;;;;;;11.48;5.78;;;8.30;99.90;;;;;;5052792;28;20041;-82
2023/03/20 07:13:09;;;;;;;12.83;6.20;;;8.40;99.90;;;;;;5068769;28;20032;-82
2023/03/20 07:15:35;;;;;;;13.55;6.15;;;8.30;99.90;;;;;;5052705;28;20350;-82
2023/03/20 07:18:01;;;;;;;14.40;5.82;;;8.40;99.90;;;;;;5052342;28;20029;-81
2023/03/20 07:20:26;;;;;;;16.15;6.18;;;8.40;99.90;;;;;;5069150;28;20040;-82
2023/03/20 07:22:52;;;;;;;12.50;5.93;;;8.40;99.90;;;;;;5069456;28;20036;-82
2023/03/20 07:25:18;;;;;;;14.90;5.55;;;8.40;99.90;;;;;;5068695;28;20044;-82
2023/03/20 07:27:49;;;;;;;12.75;5.80;;;8.50;99.90;;;;;;5052891;28;20409;-82
2023/03/20 07:30:16;;;;;;;8.13;4.63;;;8.60;99.90;;;;;;5051887;28;20504;-81
2023/03/20 07:32:43;;;;;;;10.95;4.72;;;8.70;99.90;;;;;;5052006;28;20475;-80
2023/03/20 07:35:09;;;;;;;13.38;5.70;;;8.80;99.90;;;;;;5052136;28;20029;-80
2023/03/20 07:37:34;;;;;;;16.02;6.38;;;8.90;99.90;;;;;;5052217;28;20041;-80
2023/03/20 07:40:00;;;;;;;12.32;6.07;;;9.00;99.90;;;;;;5068443;28;20044;-81
2023/03/20 07:42:26;;;;;;;12.73;4.90;;;9.20;99.90;;;;;;5051954;28;20055;-80
2023/03/20 07:44:51;;;;;;;9.67;4.63;;;9.20;99.90;;;;;;5052377;28;20503;-80
2023/03/20 07:47:17;;;;;;;12.03;6.40;;;9.30;99.90;;;;;;5051655;28;20279;-80
2023/03/20 07:49:43;;;;;;;14.53;6.90;;;9.20;99.90;;;;;;5068961;28;20330;-81
2023/03/20 07:52:08;;;;;;;13.60;6.17;;;9.30;99.90;;;;;;5051208;28;20790;-80
2023/03/20 07:54:34;;;;;;;15.18;6.70;;;9.20;99.90;;;;;;5068563;28;20400;-80
2023/03/20 07:57:00;;;;;;;15.70;6.55;;;9.30;99.90;;;;;;5035568;28;20040;-81
2023/03/20 07:59:26;;;;;;;14.27;6.55;;;9.20;99.90;;;;;;5067826;28;20051;-80
2023/03/20 08:01:51;;;;;;;16.92;5.95;;;9.20;99.90;;;;;;5068672;28;20049;-80
2023/03/20 08:04:21;;;;;;;16.23;6.10;;;9.20;99.90;;;;;;5051094;28;20103;-81
2023/03/20 08:06:46;;;;;;;15.65;6.22;;;9.20;99.90;;;;;;5051925;28;20036;-81
2023/03/20 08:09:12;;;;;;;14.55;5.60;;;9.30;99.90;;;;;;5034449;28;20084;-81
2023/03/20 08:11:38;;;;;;;13.38;6.07;;;9.40;99.90;;;;;;5051445;28;20037;-81
2023/03/20 08:14:04;;;;;;;12.83;6.07;;;9.40;99.90;;;;;;5067759;28;20124;-81
2023/03/20 08:16:30;;;;;;;13.85;6.55;;;9.50;99.90;;;;;;5051125;28;20407;-81
2023/03/20 08:19:00;;;;;;;14.20;6.40;;;9.50;99.90;;;;;;5051542;28;20040;-81
2023/03/20 08:21:27;;;;;;;17.73;5.75;;;9.60;99.90;;;;;;5067733;28;20051;-81
2023/03/20 08:23:54;;;;;;;12.23;5.45;;;9.60;99.90;;;;;;5049258;28;20036;-81
2023/03/20 08:26:19;;;;;;;16.35;6.50;;;9.60;99.90;;;;;;5067484;28;20048;-81
2023/03/20 08:28:45;;;;;;;12.23;6.32;;;9.60;99.90;;;;;;5034908;28;20500;-81
2023/03/20 08:31:11;;;;;;;10.60;5.45;;;9.60;99.90;;;;;;5067567;28;20041;-81
2023/03/20 08:33:36;;;;;;;12.75;5.72;;;9.60;99.90;;;;;;5051130;28;20043;-81
2023/03/20 08:36:02;;;;;;;11.60;5.30;;;9.70;99.90;;;;;;5051229;28;20038;-81
2023/03/20 08:38:28;;;;;;;11.75;5.95;;;9.70;99.90;;;;;;5067741;28;20156;-81
2023/03/20 08:40:54;;;;;;;16.98;6.57;;;9.60;99.90;;;;;;5051357;28;20505;-81
2023/03/20 08:43:20;;;;;;;17.80;6.47;;;9.60;99.90;;;;;;5067311;28;20727;-81
2023/03/20 08:45:46;;;;;;;16.88;7.00;;;9.70;99.90;;;;;;5067760;28;20120;-81
2023/03/20 08:48:12;;;;;;;12.60;5.60;;;9.70;99.90;;;;;;5067040;28;20037;-81
2023/03/20 08:50:38;;;;;;;13.18;6.18;;;9.70;99.90;;;;;;5051066;28;20041;-81
2023/03/20 08:53:05;;;;;;;11.15;5.72;;;9.80;99.90;;;;;;5067653;28;20075;-81
2023/03/20 08:55:30;;;;;;;14.20;6.25;;;9.80;99.90;;;;;;5048625;28;20488;-82
2023/03/20 08:57:56;;;;;;;9.88;5.00;;;9.80;99.90;;;;;;5051248;28;20044;-81
2023/03/20 09:00:23;;;;;;;11.48;5.28;;;9.80;99.90;;;;;;5067128;28;20060;-81
2023/03/20 09:02:49;;;;;;;15.52;6.68;;;9.90;99.90;;;;;;5067905;28;20043;-81
2023/03/20 09:05:15;;;;;;;16.55;6.65;;;9.80;99.90;;;;;;5070307;28;20063;-81
2023/03/20 09:07:41;;;;;;;;;;;9.80;99.90;;;;;;5072210;28;20358;-81
2023/03/20 09:10:08;;;;;;;12.70;5.95;;;9.80;99.90;;;;;;5105215;28;19923;-81
2023/03/20 09:12:34;;;;;;;18.92;6.97;;;9.90;99.90;;;;;;5070827;28;20131;-81
2023/03/20 09:15:01;;;;;;;14.13;5.57;;;10.00;99.90;;;;;;5071848;28;20515;-81
2023/03/20 09:17:27;;;;;;;13.07;5.10;;;10.10;99.90;;;;;;5070927;28;20047;-81
2023/03/20 09:19:52;;;;;;;13.18;5.60;;;10.30;99.90;;;;;;5054537;28;20420;-81
2023/03/20 09:22:18;;;;;;;13.10;5.37;;;10.40;99.90;;;;;;5053960;28;20503;-81
2023/03/20 09:24:45;;;;;;;14.13;5.90;;;10.70;99.90;;;;;;5054294;28;20283;-81
2023/03/20 09:27:12;;;;;;;11.43;5.20;;;10.90;99.90;;;;;;5055006;28;20037;-81
2023/03/20 09:29:39;;;;;;;10.95;5.55;;;11.10;99.90;;;;;;5071037;28;20048;-81
2023/03/20 09:32:06;;;;;;;14.98;6.55;;;11.10;99.90;;;;;;5054036;28;20039;-81
2023/03/20 09:34:32;;;;;;;15.63;5.97;;;11.00;99.90;;;;;;5054294;28;20047;-81
2023/03/20 09:36:57;;;;;;;12.05;5.53;;;11.10;99.90;;;;;;5037500;28;20033;-81
2023/03/20 09:39:23;;;;;;;18.55;5.65;;;11.10;99.90;;;;;;5070167;28;20045;-81
2023/03/20 09:41:50;;;;;;;10.52;5.38;;;11.10;99.90;;;;;;5071009;28;20261;-82
2023/03/20 09:44:37;;;;;;;12.43;5.68;;;11.10;99.90;;;;;;5070478;28;20048;-82
2023/03/20 09:47:40;;;;;;;9.88;4.85;;;11.10;99.90;;;;;;5054423;28;20036;-81
2023/03/20 09:50:33;;;;;;;8.73;4.45;;;11.10;99.90;;;;;;5070686;28;20103;-81
2023/03/20 09:53:19;;;;;;;13.35;5.10;;;11.20;99.90;;;;;;5054322;28;20187;-81
2023/03/20 09:55:46;;;;;;;13.73;6.65;;;11.10;99.90;;;;;;5054301;28;20051;-81
2023/03/20 09:58:20;;;;;;;13.52;5.57;;;11.10;99.90;;;;;;5070320;28;20375;-81
2023/03/20 10:00:46;;;;;;;12.20;5.22;;;11.10;99.90;;;;;;5070533;28;20040;-81
2023/03/20 10:03:20;;;;;;;11.75;5.22;;;11.20;99.90;;;;;;5068293;28;20492;-81
2023/03/20 10:06:02;;;;;;;13.90;5.80;;;11.30;99.90;;;;;;5053706;28;20044;-82
2023/03/20 10:08:38;;;;;;;15.45;5.50;;;11.30;99.90;;;;;;5070167;28;20055;-82
2023/03/20 10:11:14;;;;;;;12.23;6.67;;;11.40;99.90;;;;;;5070341;28;20372;-82
2023/03/20 10:14:20;;;;;;;9.63;5.18;;;11.40;99.90;;;;;;5053270;28;20040;-81
2023/03/20 10:17:04;;;;;;;10.07;5.07;;;11.40;99.90;;;;;;5070355;28;20037;-82
2023/03/20 10:19:32;;;;;;;13.43;4.90;;;11.50;99.90;;;;;;5070062;28;20068;-81
2023/03/20 10:22:25;;;;;;;10.18;5.78;;;11.50;99.90;;;;;;5053457;28;20093;-81
2023/03/20 10:25:09;;;;;;;11.30;6.10;;;11.40;99.90;;;;;;5068176;28;20637;-81
2023/03/20 10:28:12;;;;;;;12.10;5.85;;;11.40;99.90;;;;;;5069867;28;20475;-81
2023/03/20 10:31:01;;;;;;;15.57;6.65;;;11.20;99.90;;;;;;5048250;28;20067;-81
2023/03/20 10:33:41;;;;;;;14.00;6.72;;;11.20;99.90;;;;;;5069338;28;20032;-81
2023/03/20 10:36:13;;;;;;;11.95;6.90;;;11.10;99.90;;;;;;5052864;28;20047;-81
2023/03/20 10:38:51;;;;;;;12.85;6.75;;;11.00;99.90;;;;;;5069306;28;20462;-81
2023/03/20 10:41:22;;;;;;;15.43;7.03;;;10.90;99.90;;;;;;5069829;28;20395;-81
2023/03/20 10:43:50;;;;;;;12.88;6.38;;;10.90;99.90;;;;;;5069440;28;20502;-81
2023/03/20 10:46:22;;;;;;;14.02;5.95;;;11.00;99.90;;;;;;5052797;28;20036;-81
2023/03/20 10:48:58;;;;;;;15.93;6.40;;;11.00;99.90;;;;;;5053251;28;20349;-81
2023/03/20 10:51:42;;;;;;;11.32;6.50;;;11.00;99.90;;;;;;5068801;28;20048;-81
2023/03/20 10:54:40;;;;;;;14.38;5.60;;;11.10;99.90;;;;;;5069514;28;20426;-81
2023/03/20 10:57:16;;;;;;;15.27;6.00;;;11.20;99.90;;;;;;5061390;28;20465;-81
2023/03/20 11:00:00;;;;;;;11.02;5.30;;;11.30;99.90;;;;;;5068778;28;20032;-81
2023/03/20 11:02:31;;;;;;;8.55;5.53;;;11.30;99.90;;;;;;5069099;28;20076;-81
2023/03/20 11:05:00;;;;;;;12.88;5.75;;;11.40;99.90;;;;;;5052476;28;20072;-81
2023/03/20 11:07:36;;;;;;;11.00;5.32;;;11.30;99.90;;;;;;5068644;28;20102;-82
2023/03/20 11:10:05;;;;;;;10.85;4.80;;;11.30;99.90;;;;;;5069071;28;20044;-82
2023/03/20 11:12:46;;;;;;;12.32;4.95;;;11.40;99.90;;;;;;5068829;28;20389;-81
2023/03/20 11:15:28;;;;;;;10.73;5.60;;;11.20;99.90;;;;;;5051904;28;20037;-82
2023/03/20 11:18:03;;;;;;;12.23;5.45;;;11.10;99.90;;;;;;5068822;28;20032;-81
2023/03/20 11:20:37;;;;;;;12.90;6.22;;;11.00;99.90;;;;;;5051753;28;20101;-82
2023/03/20 11:23:05;;;;;;;17.27;6.57;;;11.00;99.90;;;;;;5069085;28;20097;-82
2023/03/20 11:25:38;;;;;;;8.32;5.13;;;11.00;99.90;;;;;;5068507;28;20047;-82
2023/03/20 11:28:29;;;;;;;16.27;5.57;;;11.00;99.90;;;;;;5068506;28;20500;-81
2023/03/20 11:31:19;;;;;;;9.77;5.00;;;11.00;99.90;;;;;;5068546;28;20037;-82
2023/03/20 11:34:10;;;;;;;12.70;5.13;;;11.00;99.90;;;;;;5059332;28;20056;-81
2023/03/20 11:36:38;;;;;;;8.95;4.90;;;10.80;99.90;;;;;;5068541;28;20496;-81
2023/03/20 11:39:20;;;;;;;13.15;5.30;;;10.70;99.90;;;;;;5051544;28;20048;-81
2023/03/20 11:41:50;;;;;;;9.15;4.75;;;10.70;99.90;;;;;;5053590;28;20044;-82
2023/03/20 11:44:35;;;;;;;9.98;4.32;;;10.70;99.90;;;;;;5069895;28;20076;-81
2023/03/20 11:47:24;;;;;;;11.45;4.82;;;10.80;99.90;;;;;;5070093;28;20044;-81
2023/03/20 11:49:58;;;;;;;9.48;5.07;;;10.80;99.90;;;;;;5069201;28;20051;-81
2023/03/20 11:52:28;;;;;;;10.00;4.82;;;10.70;99.90;;;;;;5053311;28;20047;-82
2023/03/20 11:54:58;;;;;;;9.30;5.50;;;10.70;99.90;;;;;;5053200;28;20106;-81
2023/03/20 11:57:30;;;;;;;10.40;4.95;;;10.80;99.90;;;;;;5068004;28;20119;-81
2023/03/20 11:59:56;;;;;;;7.97;3.08;;;10.80;99.90;;;;;;5052058;28;20484;-81
2023/03/20 12:02:23;;;;;;;10.77;4.57;;;10.70;99.90;;;;;;5032825;28;20029;-81
2023/03/20 12:04:49;;;;;;;10.40;4.15;;;10.70;99.90;;;;;;5067811;28;20218;-81
2023/03/20 12:07:34;;;;;;;7.80;4.50;;;10.60;99.90;;;;;;5067847;28;20047;-81
2023/03/20 12:10:06;;;;;;;7.65;3.03;;;10.60;99.90;;;;;;5068444;28;20036;-81
2023/03/20 12:12:46;;;;;;;6.45;2.28;;;10.50;99.90;;;;;;5067548;28;20044;-81
2023/03/20 12:15:11;;;;;;;8.82;3.25;;;10.40;99.90;;;;;;5067946;28;20032;-81
2023/03/20 12:17:59;;;;;;;6.43;3.00;;;10.40;99.90;;;;;;5067670;28;20094;-81
2023/03/20 12:20:45;;;;;;;8.95;3.60;;;10.40;99.90;;;;;;5068138;28;20568;-81
2023/03/20 12:23:14;;;;;;;7.88;2.88;;;10.30;99.90;;;;;;5068090;28;20043;-81
2023/03/20 12:25:58;;;;;;;8.90;2.40;;;10.40;99.90;;;;;;5067500;28;20041;-81
2023/03/20 12:29:01;;;;;;;4.35;2.45;;;10.50;99.90;;;;;;5067687;28;20114;-81
2023/03/20 12:31:45;;;;;;;6.43;2.53;;;10.50;99.90;;;;;;5045172;28;20041;-81
2023/03/20 12:34:17;;;;;;;5.93;2.58;;;10.50;99.90;;;;;;5051163;28;20032;-81
2023/03/20 12:36:47;;;;;;;2.58;1.40;;;10.40;99.90;;;;;;5050866;28;20036;-81
2023/03/20 12:39:23;;;;;;;3.67;1.88;;;10.40;99.90;;;;;;5052689;28;20421;-81
2023/03/20 12:42:08;;;;;;;8.15;2.15;;;10.30;99.90;;;;;;5054940;28;20041;-82
2023/03/20 12:44:50;;;;;;;4.72;2.25;;;10.30;99.90;;;;;;5071595;28;20048;-82
2023/03/20 12:47:26;;;;;;;5.85;1.98;;;10.10;99.90;;;;;;5071760;28;20127;-82
2023/03/20 12:50:03;;;;;;;4.28;2.17;;;10.20;99.90;;;;;;5071995;28;20040;-82
2023/03/20 12:52:53;;;;;;;4.57;2.20;;;10.30;99.90;;;;;;5072011;28;20412;-81
2023/03/20 12:55:33;;;;;;;5.72;2.83;;;10.20;99.90;;;;;;5071924;28;20132;-82
2023/03/20 12:58:11;;;;;;;3.35;1.58;;;10.10;99.90;;;;;;5055429;28;20492;-82
2023/03/20 13:01:23;;;;;;;6.63;2.53;;;10.10;99.90;;;;;;5055423;28;20032;-82
2023/03/20 13:04:14;;;;;;;9.27;3.50;;;10.10;99.90;;;;;;5033566;28;20043;-82
2023/03/20 13:07:04;;;;;;;7.78;3.20;;;10.00;99.90;;;;;;5069931;28;20040;-82
2023/03/20 13:09:41;;;;;;;4.22;2.42;;;9.90;99.90;;;;;;5054736;28;20104;-82
2023/03/20 13:12:28;;;;;;;9.35;3.42;;;10.00;99.90;;;;;;5054772;28;20127;-82
2023/03/20 13:15:02;;;;;;;7.65;3.38;;;10.00;99.90;;;;;;5053919;28;20040;-82
2023/03/20 13:17:49;;;;;;;6.63;3.70;;;9.90;99.90;;;;;;5072470;28;20050;-82
2023/03/20 13:20:27;;;;;;;7.10;3.70;;;9.90;99.90;;;;;;5055303;28;20086;-82
2023/03/20 13:23:01;;;;;;;7.28;3.45;;;9.80;99.90;;;;;;5072197;28;20040;-82
2023/03/20 13:26:04;;;;;;;7.07;4.10;;;9.80;99.90;;;;;;5072579;28;20041;-82
2023/03/20 13:28:42;;;;;;;7.82;3.72;;;9.70;99.90;;;;;;5054048;28;20111;-82